Time;durP1;ratioP1;P1;durP2;ratioP2;P2;SDS_P1;SDS_P2;PMS_P1;PMS_P2;Temp;Humidity;BMP_temperature;BMP_pressure;BME280_temperature;BME280_humidity;BME280_pressure;Samples;Min_cycle;Max_cycle;Signal;HPM_P1;HPM_P2
2022/08/20 00:00:34;;;;;;;8.93;5.38;;;;;;;16.09;100.00;101180.34;5022977;28;20195;-46
2022/08/20 00:03:07;;;;;;;5.38;4.97;;;;;;;16.06;100.00;101177.81;5025231;28;20181;-47
2022/08/20 00:05:39;;;;;;;5.15;4.70;;;;;;;16.06;100.00;101170.56;5020682;28;20184;-46
2022/08/20 00:08:06;;;;;;;5.10;4.60;;;;;;;16.08;100.00;101169.63;5016863;28;20679;-45
2022/08/20 00:10:35;;;;;;;4.38;3.97;;;;;;;16.10;100.00;101163.19;5013428;28;20193;-48
2022/08/20 00:13:01;;;;;;;4.53;4.22;;;;;;;16.11;100.00;101169.44;5028310;28;20196;-46
2022/08/20 00:15:31;;;;;;;4.43;4.13;;;;;;;16.06;100.00;101167.00;5022775;28;20187;-47
2022/08/20 00:17:58;;;;;;;6.68;4.35;;;;;;;16.09;100.00;101157.84;5021760;28;20184;-47
2022/08/20 00:20:28;;;;;;;6.30;4.05;;;;;;;16.09;100.00;101152.44;5024418;28;20183;-48
2022/08/20 00:22:55;;;;;;;5.05;4.65;;;;;;;16.02;100.00;101147.38;5029764;28;20944;-45
2022/08/20 00:25:21;;;;;;;5.40;4.65;;;;;;;16.05;100.00;101152.63;5026849;28;20215;-48
2022/08/20 00:27:46;;;;;;;5.10;4.70;;;;;;;16.05;100.00;101143.66;5021513;28;20597;-46
2022/08/20 00:30:13;;;;;;;5.30;4.88;;;;;;;16.02;100.00;101139.28;5021626;28;20200;-46
2022/08/20 00:32:54;;;;;;;4.43;4.03;;;;;;;16.03;100.00;101146.44;5026665;28;20214;-45
2022/08/20 00:35:28;;;;;;;5.28;4.88;;;;;;;16.00;100.00;101145.72;5023754;28;20666;-47
2022/08/20 00:37:54;;;;;;;5.45;4.90;;;;;;;15.97;100.00;101144.06;5024605;28;20194;-47
2022/08/20 00:40:27;;;;;;;4.70;4.40;;;;;;;15.94;100.00;101141.56;5019675;28;20188;-46
2022/08/20 00:42:57;;;;;;;6.10;4.70;;;;;;;15.97;100.00;101141.38;5015745;28;20664;-47
2022/08/20 00:45:23;;;;;;;7.43;5.10;;;;;;;15.97;100.00;101144.06;5015058;28;20216;-46
2022/08/20 00:47:49;;;;;;;5.80;4.68;;;;;;;15.90;100.00;101150.78;5026644;28;20307;-47
2022/08/20 00:50:20;;;;;;;5.72;5.20;;;;;;;15.85;100.00;101136.63;5016778;28;20722;-46
2022/08/20 00:52:49;;;;;;;6.53;4.38;;;;;;;15.98;100.00;101143.13;5021005;28;20238;-45
2022/08/20 00:55:16;;;;;;;7.97;5.68;;;;;;;15.89;100.00;101132.81;5025944;28;20213;-47
2022/08/20 00:57:52;;;;;;;6.25;5.68;;;;;;;15.97;100.00;101133.25;5028480;28;20747;-46
2022/08/20 01:00:25;;;;;;;7.60;5.75;;;;;;;15.98;100.00;101131.44;5013725;28;20595;-47
2022/08/20 01:02:51;;;;;;;5.55;5.05;;;;;;;16.05;100.00;101135.56;5018829;28;20730;-48
2022/08/20 01:05:17;;;;;;;8.35;4.95;;;;;;;16.01;100.00;101136.69;5022864;28;20648;-47
2022/08/20 01:07:43;;;;;;;5.93;5.32;;;;;;;16.03;100.00;101135.63;5026790;28;20223;-49
2022/08/20 01:10:19;;;;;;;5.40;4.93;;;;;;;16.06;100.00;101148.94;5027277;28;20725;-47
2022/08/20 01:12:46;;;;;;;7.07;6.30;;;;;;;15.95;100.00;101143.28;5015355;28;20246;-47
2022/08/20 01:15:16;;;;;;;6.82;6.13;;;;;;;15.92;100.00;101140.75;5019766;28;20203;-46
2022/08/20 01:17:49;;;;;;;5.80;5.38;;;;;;;15.99;100.00;101144.88;5023009;28;20208;-47
2022/08/20 01:20:24;;;;;;;6.05;5.30;;;;;;;15.94;100.00;101143.34;5028041;28;20184;-47
2022/08/20 01:26:05;;;;;;;7.50;6.78;;;;;;;15.93;100.00;101144.34;5018331;28;20315;-46
2022/08/20 01:28:49;;;;;;;7.10;6.40;;;;;;;15.90;100.00;101139.13;5015994;28;20215;-47
2022/08/20 01:31:21;;;;;;;6.05;5.50;;;;;;;15.88;100.00;101135.63;5011456;28;20470;-48
2022/08/20 01:33:48;;;;;;;6.60;5.55;;;;;;;15.97;100.00;101141.38;5025948;28;20208;-47
2022/08/20 01:36:15;;;;;;;5.93;5.43;;;;;;;15.91;100.00;101135.44;5022702;28;20271;-47
2022/08/20 01:38:42;;;;;;;5.57;5.07;;;;;;;15.94;100.00;101137.97;5014711;28;20218;-47
2022/08/20 01:41:25;;;;;;;5.07;4.60;;;;;;;16.00;100.00;101137.63;5021325;28;20207;-47
2022/08/20 01:43:55;;;;;;;6.55;5.30;;;;;;;15.99;100.00;101144.88;5018100;28;20658;-48
2022/08/20 01:46:48;;;;;;;5.65;5.05;;;;;;;16.01;100.00;101132.13;5013435;28;20193;-46
2022/08/20 01:49:18;;;;;;;5.43;4.90;;;;;;;16.00;100.00;101143.03;5015351;28;20236;-47
2022/08/20 01:51:45;;;;;;;4.60;4.30;;;;;;;16.01;100.00;101147.50;5016048;28;20193;-48
2022/08/20 01:54:10;;;;;;;5.93;5.28;;;;;;;15.97;100.00;101149.47;5011993;28;20235;-46
2022/08/20 01:56:54;;;;;;;5.88;5.32;;;;;;;15.90;100.00;101144.50;5022560;28;20619;-47
2022/08/20 01:59:20;;;;;;;7.00;6.40;;;;;;;15.86;100.00;101150.06;5022348;28;20192;-46
2022/08/20 02:01:45;;;;;;;6.88;6.28;;;;;;;15.92;100.00;101153.38;5018784;28;20189;-47
2022/08/20 02:04:10;;;;;;;7.82;7.03;;;;;;;15.83;100.00;101161.06;5014237;28;20213;-47
2022/08/20 02:06:43;;;;;;;8.57;7.78;;;;;;;15.83;100.00;101168.28;5013233;28;20295;-47
2022/08/20 02:09:09;;;;;;;8.95;8.05;;;;;;;15.79;100.00;101169.41;5025329;28;20302;-46
2022/08/20 02:11:36;;;;;;;8.32;6.82;;;;;;;15.80;100.00;101166.63;5021844;28;20717;-47
2022/08/20 02:14:05;;;;;;;9.07;8.30;;;;;;;15.81;100.00;101167.50;5017822;28;20590;-48
2022/08/20 02:16:36;;;;;;;8.63;7.82;;;;;;;15.86;100.00;101174.38;5012961;28;20239;-46
2022/08/20 02:19:11;;;;;;;8.57;7.68;;;;;;;15.88;100.00;101173.44;5016157;28;20562;-48
2022/08/20 02:21:50;;;;;;;8.85;7.85;;;;;;;15.90;100.00;101180.50;5013217;28;20184;-47
2022/08/20 02:24:17;;;;;;;10.25;9.25;;;;;;;15.86;100.00;101181.63;5019099;28;20549;-47
2022/08/20 02:26:43;;;;;;;10.27;9.18;;;;;;;15.85;100.00;101178.06;5015676;28;20185;-46
2022/08/20 02:29:11;;;;;;;9.65;8.82;;;;;;;15.84;100.00;101183.53;5010626;28;20334;-48
2022/08/20 02:31:38;;;;;;;11.43;9.20;;;;;;;15.90;100.00;101176.94;5024117;28;20184;-48
2022/08/20 02:34:05;;;;;;;14.60;10.13;;;;;;;15.81;100.00;101179.19;5025302;28;20596;-46
2022/08/20 02:36:32;;;;;;;9.95;8.98;;;;;;;15.88;100.00;101182.41;5021446;28;20184;-46
2022/08/20 02:38:57;;;;;;;9.25;8.45;;;;;;;15.92;100.00;101177.69;5017354;28;20272;-47
2022/08/20 02:41:23;;;;;;;12.02;10.85;;;;;;;15.91;100.00;101173.28;5017105;28;20659;-47
2022/08/20 02:43:50;;;;;;;15.68;12.13;;;;;;;15.97;100.00;101168.41;5025903;28;20715;-46
2022/08/20 02:46:20;;;;;;;19.52;13.30;;;;;;;15.98;100.00;101162.06;5025174;28;20192;-48
2022/08/20 02:48:45;;;;;;;14.57;13.00;;;;;;;16.04;100.00;101168.94;5020111;28;20262;-46
2022/08/20 02:51:11;;;;;;;16.52;14.73;;;;;;;16.01;100.00;101175.38;5016407;28;20192;-49
2022/08/20 02:53:38;;;;;;;17.20;14.10;;;;;;;16.06;100.00;101173.28;5018908;28;20275;-46
2022/08/20 02:56:05;;;;;;;21.38;15.98;;;;;;;16.02;100.00;101171.69;5027884;28;20192;-48
2022/08/20 02:58:31;;;;;;;19.50;16.15;;;;;;;16.05;100.00;101160.75;5023345;28;20223;-46
2022/08/20 03:00:57;;;;;;;19.88;17.77;;;;;;;16.00;100.00;101162.81;5023953;28;20192;-46
2022/08/20 03:03:23;;;;;;;21.40;17.20;;;;;;;16.04;100.00;101166.22;5028661;28;20686;-47
2022/08/20 03:05:54;;;;;;;22.48;17.17;;;;;;;15.99;100.00;101163.78;5030533;28;20194;-47
2022/08/20 03:08:21;;;;;;;24.98;18.95;;;;;;;15.95;100.00;101166.75;5026816;28;20213;-47
2022/08/20 03:10:49;;;;;;;19.55;15.85;;;;;;;16.04;100.00;101172.50;5021230;28;20290;-47
2022/08/20 03:13:15;;;;;;;18.60;16.25;;;;;;;16.06;100.00;101154.34;5017893;28;20213;-47
2022/08/20 03:15:44;;;;;;;17.95;15.70;;;;;;;16.08;100.00;101159.69;5029512;28;20275;-48
2022/08/20 03:18:09;;;;;;;20.63;17.63;;;;;;;16.03;100.00;101154.53;5029621;28;20268;-47
2022/08/20 03:20:35;;;;;;;27.27;21.80;;;;;;;16.02;100.00;101155.50;5025108;28;20275;-46
2022/08/20 03:23:01;;;;;;;18.88;16.88;;;;;;;16.05;100.00;101146.38;5020639;28;20267;-48
2022/08/20 03:25:27;;;;;;;20.40;16.75;;;;;;;16.03;100.00;101153.69;5016335;28;20211;-49
2022/08/20 03:27:54;;;;;;;24.52;19.52;;;;;;;16.07;100.00;101152.56;5015638;28;20203;-47
2022/08/20 03:30:21;;;;;;;25.02;19.88;;;;;;;16.05;100.00;101152.63;5027509;28;20196;-48
2022/08/20 03:32:47;;;;;;;22.35;19.33;;;;;;;16.09;100.00;101152.44;5019169;28;20189;-45
2022/08/20 03:35:14;;;;;;;35.63;27.15;;;;;;;16.06;100.00;101145.38;5022560;28;20208;-49
2022/08/20 03:37:41;;;;;;;38.33;28.63;;;;;;;16.08;100.00;101148.88;5026119;28;20181;-47
2022/08/20 03:40:12;;;;;;;36.20;27.42;;;;;;;16.11;100.00;101140.59;5028733;28;20558;-48
2022/08/20 03:42:39;;;;;;;35.45;27.02;;;;;;;16.10;100.00;101157.78;5022510;28;20681;-46
2022/08/20 03:45:07;;;;;;;28.50;22.27;;;;;;;16.19;100.00;101145.56;5018143;28;20580;-47
2022/08/20 03:47:32;;;;;;;35.92;26.98;;;;;;;16.08;100.00;101148.00;5023104;28;20274;-46
2022/08/20 03:49:59;;;;;;;36.30;28.08;;;;;;;16.02;100.00;101152.78;5014743;28;20181;-48
2022/08/20 03:52:27;;;;;;;42.13;28.95;;;;;;;16.02;100.00;101158.19;5028812;28;20191;-47
2022/08/20 03:54:53;;;;;;;34.22;25.58;;;;;;;16.12;100.00;101165.81;5025368;28;20318;-48
2022/08/20 03:57:18;;;;;;;39.00;29.27;;;;;;;16.13;100.00;101162.13;5020391;28;20260;-48
2022/08/20 03:59:44;;;;;;;39.13;28.50;;;;;;;16.15;100.00;101171.03;5015964;28;20631;-47
2022/08/20 04:02:10;;;;;;;39.10;28.88;;;;;;;16.13;100.00;101163.00;5012665;28;20710;-47
2022/08/20 04:04:37;;;;;;;45.53;30.85;;;;;;;16.16;100.00;101165.53;5027379;28;20687;-47
2022/08/20 04:07:09;;;;;;;43.25;31.50;;;;;;;16.16;100.00;101164.66;5024052;28;20208;-49
2022/08/20 04:09:37;;;;;;;39.80;28.45;;;;;;;16.24;100.00;101170.50;5018617;28;20790;-48
2022/08/20 04:12:03;;;;;;;40.42;27.90;;;;;;;16.27;100.00;101171.22;5015292;28;20562;-49
2022/08/20 04:14:28;;;;;;;48.13;33.92;;;;;;;16.30;100.00;101172.88;5018172;28;20195;-48
2022/08/20 04:16:54;;;;;;;54.00;35.72;;;;;;;16.27;100.00;101168.50;5026265;28;20191;-48
2022/08/20 04:19:20;;;;;;;53.85;35.95;;;;;;;16.34;100.00;101185.25;5021870;28;20694;-46
2022/08/20 04:21:47;;;;;;;51.10;35.35;;;;;;;16.37;100.00;101182.38;5018509;28;20270;-48
2022/08/20 04:24:14;;;;;;;53.75;35.60;;;;;;;16.41;100.00;101191.19;5013700;28;20215;-47
2022/08/20 04:26:40;;;;;;;54.20;34.47;;;;;;;16.44;100.00;101188.28;5019154;28;20191;-47
2022/08/20 04:29:06;;;;;;;57.00;36.22;;;;;;;16.43;100.00;101194.69;5023483;28;20543;-45
2022/08/20 04:31:32;;;;;;;53.88;35.40;;;;;;;16.46;100.00;101189.97;5019616;28;20203;-47
2022/08/20 04:34:00;;;;;;;50.38;32.58;;;;;;;16.50;100.00;101192.50;5023242;28;20215;-47
2022/08/20 04:36:25;;;;;;;42.88;29.80;;;;;;;16.54;100.00;101186.81;5027132;28;20182;-48
2022/08/20 04:38:51;;;;;;;49.63;33.60;;;;;;;16.48;100.00;101190.75;5027278;28;20184;-48
2022/08/20 04:41:18;;;;;;;48.28;33.78;;;;;;;16.49;100.00;101191.63;5023826;28;20219;-47
2022/08/20 04:43:44;;;;;;;50.20;34.20;;;;;;;16.52;100.00;101201.41;5020289;28;20303;-47
2022/08/20 04:46:09;;;;;;;51.17;33.72;;;;;;;16.48;100.00;101182.63;5015263;28;20203;-46
2022/08/20 04:48:38;;;;;;;47.40;33.35;;;;;;;16.50;100.00;101179.84;5011343;28;20222;-47
2022/08/20 04:51:04;;;;;;;49.45;34.38;;;;;;;16.52;100.00;101185.16;5026125;28;20188;-47
2022/08/20 04:53:30;;;;;;;51.05;34.33;;;;;;;16.51;100.00;101191.53;5020683;28;20723;-46
2022/08/20 04:55:58;;;;;;;50.67;35.15;;;;;;;16.49;100.00;101197.03;5019085;28;20263;-48
2022/08/20 04:58:29;;;;;;;46.53;30.88;;;;;;;16.59;100.00;101184.72;5014755;28;20181;-48
2022/08/20 05:01:01;;;;;;;46.92;31.17;;;;;;;16.62;100.00;101186.41;5016254;28;20234;-49
2022/08/20 05:03:27;;;;;;;34.28;25.75;;;;;;;16.73;100.00;101188.47;5025338;28;20204;-49
2022/08/20 05:05:53;;;;;;;31.38;24.73;;;;;;;16.76;100.00;101194.56;5021537;28;20195;-49
2022/08/20 05:08:21;;;;;;;44.90;30.67;;;;;;;16.73;100.00;101192.06;5021870;28;20588;-48
2022/08/20 05:10:48;;;;;;;37.05;28.15;;;;;;;16.83;100.00;101198.69;5026140;28;20188;-48
2022/08/20 05:13:15;;;;;;;40.22;28.58;;;;;;;16.87;100.00;101194.84;5028318;28;20306;-47
2022/08/20 05:15:41;;;;;;;39.38;27.77;;;;;;;16.94;100.00;101191.78;5024827;28;20276;-48
2022/08/20 05:18:07;;;;;;;40.45;30.02;;;;;;;17.00;100.00;101188.72;5020244;28;20606;-48
2022/08/20 05:20:38;;;;;;;43.28;28.90;;;;;;;17.04;100.00;101192.97;5015393;28;20188;-47
2022/08/20 05:23:07;;;;;;;37.25;28.42;;;;;;;17.04;100.00;101192.97;5027407;28;20267;-48
2022/08/20 05:25:33;;;;;;;41.22;28.48;;;;;;;17.04;100.00;101201.09;5027442;28;20665;-47
2022/08/20 05:28:08;;;;;;;37.05;27.85;;;;;;;17.04;100.00;101196.56;5023314;28;20490;-48
2022/08/20 05:30:35;;;;;;;40.60;27.35;;;;;;;17.15;100.00;101204.03;5021568;28;20646;-48
2022/08/20 05:33:05;;;;;;;36.88;27.77;;;;;;;17.15;100.00;101203.19;5023775;28;20635;-49
2022/08/20 05:35:37;;;;;;;30.33;25.33;;;;;;;17.27;100.00;101197.00;5015378;28;20198;-47
2022/08/20 05:38:05;;;;;;;39.40;30.50;;;;;;;17.31;100.00;101206.69;5027482;28;20180;-47
2022/08/20 05:40:31;;;;;;;31.90;26.38;;;;;;;17.36;100.00;101206.41;5020354;28;20187;-49
2022/08/20 05:42:56;;;;;;;34.80;29.83;;;;;;;17.51;100.00;101197.34;5017189;28;20188;-47
2022/08/20 05:45:22;;;;;;;35.58;28.10;;;;;;;17.60;100.00;101202.22;5016846;28;20812;-50
2022/08/20 05:47:48;;;;;;;29.23;24.45;;;;;;;17.82;100.00;101200.88;5020799;28;20702;-49
2022/08/20 05:50:15;;;;;;;30.80;25.88;;;;;;;17.90;100.00;101221.13;5022898;28;20196;-47
2022/08/20 05:52:41;;;;;;;29.77;23.63;;;;;;;17.79;100.00;101222.75;5019331;28;20184;-47
2022/08/20 05:55:09;;;;;;;26.50;21.88;;;;;;;17.78;100.00;101221.00;5016927;28;20641;-46
2022/08/20 05:57:35;;;;;;;26.23;21.35;;;;;;;17.97;100.00;101215.31;5012420;28;20193;-47
2022/08/20 06:00:06;;;;;;;26.15;21.08;;;;;;;17.94;100.00;101221.81;5022264;28;20660;-47
2022/08/20 06:05:22;;;;;;;23.45;19.45;;;;;;;18.45;100.00;101221.28;5016854;28;20272;-47
2022/08/20 06:07:49;;;;;;;20.95;18.02;;;;;;;18.74;100.00;101230.25;5013732;28;20296;-47
2022/08/20 06:10:15;;;;;;;19.35;16.35;;;;;;;19.09;100.00;101229.75;5018888;28;20198;-46
2022/08/20 06:12:42;;;;;;;20.88;18.60;;;;;;;19.05;100.00;101226.38;5029560;28;20239;-46
2022/08/20 06:15:07;;;;;;;22.23;18.13;;;;;;;18.97;100.00;101238.72;5022850;28;20211;-46
2022/08/20 06:17:33;;;;;;;16.80;15.00;;;;;;;19.38;100.00;101229.63;5023399;28;20538;-46
2022/08/20 06:20:05;;;;;;;18.33;16.40;;;;;;;19.51;100.00;101234.09;5023788;28;20192;-46
2022/08/20 06:22:30;;;;;;;17.92;16.05;;;;;;;19.52;100.00;101230.38;5021776;28;20240;-49
2022/08/20 06:24:56;;;;;;;17.48;15.68;;;;;;;19.49;100.00;101227.03;5024694;28;20301;-48
2022/08/20 06:27:22;;;;;;;17.38;15.75;;;;;;;19.75;100.00;101223.38;5023259;28;20243;-46
2022/08/20 06:29:48;;;;;;;16.95;14.90;;;;;;;19.94;100.00;101232.94;5023758;28;20284;-46
2022/08/20 06:32:14;;;;;;;17.90;15.40;;;;;;;20.07;100.00;101225.66;5026326;28;20642;-46
2022/08/20 06:34:39;;;;;;;16.33;14.63;;;;;;;20.17;100.00;101236.75;5025716;28;20243;-46
2022/08/20 06:37:17;;;;;;;14.35;12.95;;;;;;;20.63;100.00;101232.53;5021390;28;20184;-46
2022/08/20 06:39:43;;;;;;;15.43;14.02;;;;;;;20.69;97.48;101232.94;5019450;28;20192;-46
2022/08/20 06:42:08;;;;;;;15.60;14.02;;;;;;;21.16;95.78;101236.66;5016104;28;20199;-46
2022/08/20 06:44:34;;;;;;;14.32;12.85;;;;;;;21.14;93.33;101238.66;5016109;28;20219;-46
2022/08/20 06:47:02;;;;;;;13.68;12.25;;;;;;;20.67;93.84;101244.94;5018418;28;20687;-47
2022/08/20 06:49:28;;;;;;;14.13;12.80;;;;;;;20.50;95.83;101241.56;5019720;28;20180;-46
2022/08/20 06:51:53;;;;;;;14.98;13.57;;;;;;;20.76;95.43;101233.38;5022025;28;20207;-47
2022/08/20 06:54:19;;;;;;;12.00;10.90;;;;;;;21.20;94.13;101232.72;5024028;28;20208;-47
2022/08/20 06:56:44;;;;;;;11.10;10.10;;;;;;;21.11;92.48;101246.19;5026148;28;20182;-46
2022/08/20 06:59:10;;;;;;;10.95;9.85;;;;;;;20.46;95.10;101239.19;5027669;28;20180;-47
2022/08/20 07:01:35;;;;;;;10.68;9.13;;;;;;;20.22;96.73;101247.28;5029786;28;20218;-47
2022/08/20 07:04:01;;;;;;;10.10;9.10;;;;;;;20.24;97.04;101248.06;5025883;28;20236;-46
2022/08/20 07:06:26;;;;;;;9.57;8.38;;;;;;;20.57;97.23;101247.47;5013820;28;20679;-46
2022/08/20 07:08:54;;;;;;;7.50;6.82;;;;;;;20.61;96.00;101240.81;5015192;28;20579;-48
2022/08/20 07:11:19;;;;;;;7.80;7.00;;;;;;;21.04;95.32;101247.63;5017529;28;20226;-46
2022/08/20 07:13:45;;;;;;;5.88;5.40;;;;;;;20.70;94.18;101251.00;5020122;28;20618;-45
2022/08/20 07:16:10;;;;;;;4.60;4.20;;;;;;;21.16;93.42;101258.44;5021887;28;20266;-47
2022/08/20 07:18:36;;;;;;;3.95;3.65;;;;;;;20.94;92.11;101250.16;5023308;28;20187;-47
2022/08/20 07:21:02;;;;;;;4.25;2.40;;;;;;;21.03;91.22;101254.06;5024211;28;20188;-45
2022/08/20 07:23:28;;;;;;;3.95;1.80;;;;;;;21.54;86.66;101243.78;5026750;28;20231;-47
2022/08/20 07:25:54;;;;;;;2.78;2.30;;;;;;;21.75;84.60;101249.38;5029279;28;20176;-46
2022/08/20 07:28:30;;;;;;;2.28;2.08;;;;;;;22.08;82.84;101246.84;5028281;28;20569;-45
2022/08/20 07:33:40;;;;;;;3.05;2.40;;;;;;;21.55;84.43;101275.50;5017613;28;20706;-48
2022/08/20 07:36:07;;;;;;;3.80;2.47;;;;;;;21.28;85.35;101266.69;5023702;28;20212;-46
2022/08/20 07:38:33;;;;;;;3.55;2.58;;;;;;;20.96;86.09;101276.31;5021437;28;20173;-45
2022/08/20 07:41:05;;;;;;;2.60;2.40;;;;;;;21.26;86.35;101269.53;5022291;28;20192;-46
2022/08/20 07:43:31;;;;;;;4.97;3.10;;;;;;;21.06;85.43;101271.06;5022723;28;20215;-45
2022/08/20 07:46:01;;;;;;;2.80;2.60;;;;;;;21.06;86.42;101281.94;5025106;28;20183;-47
2022/08/20 07:48:29;;;;;;;3.97;2.90;;;;;;;21.20;86.34;101270.00;5026537;28;20671;-46
2022/08/20 07:50:56;;;;;;;5.18;3.33;;;;;;;20.62;87.60;101275.25;5022977;28;20263;-48
2022/08/20 07:53:22;;;;;;;5.05;2.70;;;;;;;21.12;88.25;101269.69;5023590;28;20576;-46
2022/08/20 07:55:48;;;;;;;4.82;2.70;;;;;;;21.48;86.45;101279.69;5015070;28;20196;-46
2022/08/20 07:58:18;;;;;;;4.75;3.17;;;;;;;21.34;85.56;101278.00;5014961;28;20215;-46
2022/08/20 08:00:44;;;;;;;4.25;3.03;;;;;;;21.34;85.92;101269.81;5015988;28;20667;-46
2022/08/20 08:03:10;;;;;;;5.15;2.83;;;;;;;21.48;85.48;101276.09;5018359;28;20172;-46
2022/08/20 08:05:39;;;;;;;3.25;2.42;;;;;;;21.63;85.22;101283.09;5020289;28;20198;-47
2022/08/20 08:08:08;;;;;;;5.18;2.90;;;;;;;21.63;84.17;101272.19;5022634;28;20579;-47
2022/08/20 08:10:35;;;;;;;4.32;2.65;;;;;;;21.52;83.46;101285.78;5024070;28;20661;-45
2022/08/20 08:13:04;;;;;;;2.65;2.38;;;;;;;21.52;83.79;101278.47;5026166;28;20183;-47
2022/08/20 08:15:34;;;;;;;3.10;2.40;;;;;;;21.65;83.75;101292.03;5027845;28;20188;-45
2022/08/20 08:18:06;;;;;;;3.78;2.60;;;;;;;21.62;83.65;101296.84;5023212;28;20188;-46
2022/08/20 08:20:39;;;;;;;2.60;2.30;;;;;;;22.29;82.34;101282.50;5012023;28;20188;-48
2022/08/20 08:23:06;;;;;;;3.65;2.40;;;;;;;22.80;79.38;101295.63;5014155;28;20677;-46
2022/08/20 08:25:32;;;;;;;4.93;2.40;;;;;;;22.78;78.76;101303.06;5024489;28;20675;-46
2022/08/20 08:27:59;;;;;;;3.28;2.45;;;;;;;22.89;77.50;101297.56;5022355;28;20215;-45
2022/08/20 08:30:27;;;;;;;4.22;2.33;;;;;;;23.33;75.20;101290.31;5019949;28;20255;-47
2022/08/20 08:35:38;;;;;;;2.83;2.60;;;;;;;23.18;75.99;101288.88;5024141;28;20264;-46
2022/08/20 08:38:04;;;;;;;3.80;2.75;;;;;;;23.52;76.31;101284.09;5013483;28;20188;-48
2022/08/20 08:40:30;;;;;;;4.45;2.25;;;;;;;23.75;75.01;101278.53;5017831;28;20705;-47
2022/08/20 08:42:59;;;;;;;4.00;2.38;;;;;;;23.67;74.03;101289.28;5023176;28;20191;-46
2022/08/20 08:45:34;;;;;;;2.60;2.30;;;;;;;23.57;73.59;101286.44;5011954;28;20282;-45
2022/08/20 08:48:00;;;;;;;3.70;2.08;;;;;;;24.16;72.32;101283.16;5014362;28;20200;-45
2022/08/20 08:50:30;;;;;;;3.38;1.90;;;;;;;23.79;71.74;101280.91;5015798;28;20257;-45
2022/08/20 08:52:59;;;;;;;4.97;2.22;;;;;;;24.10;70.81;101280.09;5017577;28;20187;-48
2022/08/20 08:55:27;;;;;;;4.18;2.25;;;;;;;23.27;71.94;101281.75;5020005;28;20718;-47
2022/08/20 08:57:55;;;;;;;4.47;1.85;;;;;;;23.09;72.45;101286.88;5020726;28;20228;-46
2022/08/20 09:00:22;;;;;;;2.40;1.60;;;;;;;22.89;72.67;101296.72;5014892;28;20291;-47
2022/08/20 09:03:04;;;;;;;2.85;1.25;;;;;;;22.66;71.63;101296.75;5011634;28;20179;-45
2022/08/20 09:05:47;;;;;;;5.45;1.90;;;;;;;22.60;71.25;101291.78;5011091;28;20184;-45
2022/08/20 09:08:18;;;;;;;5.15;1.60;;;;;;;22.98;69.42;101294.09;5010452;28;20208;-47
2022/08/20 09:10:44;;;;;;;3.03;2.00;;;;;;;23.26;70.04;101293.66;5019932;28;20179;-48
2022/08/20 09:13:11;;;;;;;6.70;1.83;;;;;;;23.47;69.23;101294.59;5014684;28;20831;-47
2022/08/20 09:15:36;;;;;;;3.38;1.70;;;;;;;23.74;67.54;101301.41;5016211;28;20199;-46
2022/08/20 09:18:02;;;;;;;2.88;1.50;;;;;;;23.14;69.33;101295.59;5018244;28;20192;-45
2022/08/20 09:20:27;;;;;;;3.58;1.50;;;;;;;23.47;69.44;101294.59;5019614;28;20194;-46
2022/08/20 09:22:53;;;;;;;4.28;1.55;;;;;;;23.59;68.62;101298.13;5021849;28;20635;-47
2022/08/20 09:25:19;;;;;;;2.47;1.75;;;;;;;23.91;68.59;101309.06;5024028;28;20551;-46
2022/08/20 09:27:45;;;;;;;4.45;1.60;;;;;;;24.13;68.03;101307.19;5025562;28;20227;-46
2022/08/20 09:30:12;;;;;;;3.83;1.55;;;;;;;24.21;67.57;101300.03;5011163;28;20532;-47
2022/08/20 09:32:37;;;;;;;4.10;1.88;;;;;;;24.45;66.66;101293.38;5010061;28;20701;-46
2022/08/20 09:35:03;;;;;;;3.53;1.50;;;;;;;24.46;65.42;101300.56;5012147;28;20211;-47
2022/08/20 09:37:31;;;;;;;4.32;1.65;;;;;;;23.99;65.11;101305.66;5014032;28;20267;-48
2022/08/20 09:39:57;;;;;;;4.38;1.75;;;;;;;23.91;64.91;101300.84;5015328;28;20192;-49
2022/08/20 09:42:26;;;;;;;8.98;2.38;;;;;;;23.44;65.33;101301.19;5017623;28;20210;-48
2022/08/20 09:44:52;;;;;;;7.57;2.40;;;;;;;23.44;66.76;101301.19;5023033;28;20294;-47
2022/08/20 09:47:18;;;;;;;8.02;2.50;;;;;;;24.03;65.57;101294.31;5025610;28;20238;-48
2022/08/20 09:49:44;;;;;;;3.00;1.80;;;;;;;24.74;63.90;101295.38;5027091;28;20721;-45
2022/08/20 09:52:20;;;;;;;8.57;1.95;;;;;;;24.62;62.28;101292.75;5029415;28;20186;-46
2022/08/20 09:54:46;;;;;;;3.60;1.63;;;;;;;24.15;63.01;101294.22;5028368;28;20618;-46
2022/08/20 09:57:12;;;;;;;5.95;1.40;;;;;;;24.03;63.11;101294.31;5025210;28;20164;-48
2022/08/20 09:59:38;;;;;;;8.05;1.85;;;;;;;23.51;63.82;101296.06;5014914;28;20203;-47
2022/08/20 10:02:03;;;;;;;7.68;1.60;;;;;;;23.64;64.50;101295.88;5017351;28;20250;-46
2022/08/20 10:04:29;;;;;;;6.53;1.45;;;;;;;24.18;62.87;101300.31;5019213;28;20214;-47
2022/08/20 10:06:55;;;;;;;6.65;1.73;;;;;;;23.26;65.67;101297.25;5021452;28;20191;-46
2022/08/20 10:09:20;;;;;;;6.70;1.75;;;;;;;22.91;66.50;101295.59;5022376;28;20237;-48
2022/08/20 10:11:46;;;;;;;7.22;1.80;;;;;;;23.12;64.43;101292.97;5025097;28;20533;-47
2022/08/20 10:14:11;;;;;;;5.65;1.90;;;;;;;23.42;64.44;101294.97;5023803;28;20701;-46
2022/08/20 10:16:37;;;;;;;7.25;1.67;;;;;;;23.60;64.69;101300.75;5028599;28;20194;-45
2022/08/20 10:19:03;;;;;;;8.60;2.15;;;;;;;23.21;66.29;101297.66;5030074;28;20254;-48
2022/08/20 10:21:30;;;;;;;7.30;2.03;;;;;;;23.18;65.67;101292.47;5028378;28;20183;-46
2022/08/20 10:23:56;;;;;;;5.25;1.95;;;;;;;23.37;65.89;101286.28;5014970;28;20215;-47
2022/08/20 10:26:21;;;;;;;9.38;2.10;;;;;;;23.58;65.08;101296.41;5016440;28;20172;-47
2022/08/20 10:28:47;;;;;;;6.85;1.83;;;;;;;22.94;64.71;101294.50;5016939;28;20231;-46
2022/08/20 10:31:12;;;;;;;6.25;2.20;;;;;;;22.97;65.26;101303.28;5020484;28;20180;-48
2022/08/20 10:33:39;;;;;;;7.80;2.30;;;;;;;23.50;64.49;101301.66;5022294;28;20258;-48
2022/08/20 10:36:14;;;;;;;6.15;1.83;;;;;;;23.21;63.33;101299.53;5024188;28;20188;-47
2022/08/20 10:38:41;;;;;;;6.45;2.15;;;;;;;23.18;64.14;101305.28;5018873;28;20207;-48
2022/08/20 10:41:07;;;;;;;6.93;1.80;;;;;;;23.42;63.73;101299.59;5016766;28;20200;-46
2022/08/20 10:43:33;;;;;;;5.63;1.88;;;;;;;23.85;63.84;101299.53;5014690;28;20319;-48
2022/08/20 10:45:58;;;;;;;7.88;2.22;;;;;;;24.04;61.55;101292.44;5013144;28;20202;-47
2022/08/20 10:48:25;;;;;;;6.72;2.10;;;;;;;23.69;61.46;101292.75;5014045;28;20234;-47
2022/08/20 10:50:50;;;;;;;7.28;2.03;;;;;;;24.14;59.40;101290.63;5015135;28;20215;-47
2022/08/20 10:53:16;;;;;;;7.13;1.95;;;;;;;24.33;59.13;101302.66;5017906;28;20279;-48
2022/08/20 10:55:42;;;;;;;6.20;1.70;;;;;;;23.91;59.57;101305.47;5018944;28;20210;-46
2022/08/20 10:58:08;;;;;;;5.88;1.63;;;;;;;24.39;59.24;101308.47;5021728;28;20277;-48
2022/08/20 11:00:35;;;;;;;9.10;1.75;;;;;;;24.00;57.50;101307.38;5021912;28;20618;-48
2022/08/20 11:03:01;;;;;;;7.53;1.98;;;;;;;24.45;55.89;101302.44;5025846;28;20552;-47
2022/08/20 11:05:27;;;;;;;7.80;2.08;;;;;;;24.77;55.33;101309.66;5027833;28;20263;-50
2022/08/20 11:07:54;;;;;;;7.32;2.03;;;;;;;24.68;56.07;101308.59;5030000;28;20615;-51
2022/08/20 11:10:21;;;;;;;8.00;2.17;;;;;;;24.47;55.77;101300.44;5028271;28;20172;-51
2022/08/20 11:12:46;;;;;;;7.93;1.90;;;;;;;23.78;55.95;101316.59;5014661;28;20283;-47
2022/08/20 11:15:14;;;;;;;8.18;1.83;;;;;;;23.82;57.36;101309.88;5029697;28;20326;-48
2022/08/20 11:17:42;;;;;;;6.47;1.70;;;;;;;23.98;56.38;101318.47;5027852;28;20175;-51
2022/08/20 11:20:09;;;;;;;6.75;1.85;;;;;;;23.78;55.46;101322.94;5019955;28;20259;-48
2022/08/20 11:22:35;;;;;;;6.32;1.55;;;;;;;24.11;55.15;101325.59;5022077;28;20636;-47
2022/08/20 11:25:01;;;;;;;8.55;1.60;;;;;;;24.07;52.87;101325.00;5023501;28;20206;-47
2022/08/20 11:27:30;;;;;;;3.90;1.40;;;;;;;24.27;50.67;101318.66;5025618;28;20594;-49